createdAt,value
2022-10-06T00:00:26.357Z,86.56
2022-10-06T00:02:28.297Z,86.79
2022-10-06T00:04:29.143Z,85.2
2022-10-06T00:06:30.040Z,84.03
2022-10-06T00:08:31.914Z,84.26
2022-10-06T00:10:33.607Z,84.21
2022-10-06T00:12:35.242Z,83.96
2022-10-06T00:14:36.950Z,84.02
2022-10-06T00:16:38.852Z,84.51
2022-10-06T00:18:39.755Z,84.04
2022-10-06T00:20:41.226Z,83.73
2022-10-06T00:22:42.873Z,83.38
2022-10-06T00:24:44.324Z,82.93
2022-10-06T00:26:45.730Z,82.53
2022-10-06T00:30:48.612Z,82.25
2022-10-06T00:32:49.762Z,81.78
2022-10-06T00:34:50.827Z,81.87
2022-10-06T00:36:52.107Z,81.96
2022-10-06T00:38:53.558Z,82.15
2022-10-06T00:40:54.695Z,81.95
2022-10-06T00:42:56.118Z,81.98
2022-10-06T00:44:57.945Z,82.43
2022-10-06T00:49:01.029Z,82.06
2022-10-06T00:51:01.962Z,82.13
2022-10-06T00:53:03.561Z,82.27
2022-10-06T00:55:05.113Z,82.66
2022-10-06T00:57:06.664Z,82.94
2022-10-06T00:59:07.738Z,83.07
2022-10-06T01:03:11.040Z,83.93
2022-10-06T01:05:11.969Z,84.35
2022-10-06T01:07:13.376Z,84.74
2022-10-06T01:09:15.163Z,84.84
2022-10-06T01:13:17.846Z,83.81
2022-10-06T01:15:19.390Z,83.75
2022-10-06T01:17:21.030Z,83.61
2022-10-06T01:19:22.307Z,83.53
2022-10-06T01:23:25.559Z,84.15
2022-10-06T01:25:27.439Z,84.5
2022-10-06T01:27:28.413Z,84.4
2022-10-06T01:29:29.493Z,83.42
2022-10-06T01:33:31.616Z,83.53
2022-10-06T01:35:32.811Z,83.56
2022-10-06T01:37:34.360Z,83.36
2022-10-06T01:39:35.745Z,83.51
2022-10-06T01:41:37.325Z,83.68
2022-10-06T01:45:39.691Z,84.18
2022-10-06T01:47:41.477Z,84.55
2022-10-06T01:49:42.491Z,84.55
2022-10-06T01:51:43.672Z,84.36
2022-10-06T01:53:44.843Z,84.37
2022-10-06T01:55:45.938Z,84.08
2022-10-06T01:57:47.791Z,83.48
2022-10-06T01:59:53.924Z,83.65
2022-10-06T02:01:51.321Z,83.46
2022-10-06T02:03:53.060Z,83.39
2022-10-06T02:05:54.505Z,82.81
2022-10-06T02:07:56.156Z,83.36
2022-10-06T02:09:57.845Z,83.53
2022-10-06T02:13:59.939Z,84.1
2022-10-06T02:18:02.836Z,83.82
2022-10-06T02:20:04.478Z,83.93
2022-10-06T02:22:05.868Z,84.07
2022-10-06T02:24:06.793Z,84.21
2022-10-06T02:28:09.772Z,84.55
2022-10-06T02:30:10.887Z,84.76
2022-10-06T02:34:14.252Z,85.24
2022-10-06T02:36:15.925Z,85.98
2022-10-06T02:38:17.179Z,86.24
2022-10-06T02:40:18.290Z,85.39
2022-10-06T02:42:19.821Z,85.26
2022-10-06T02:44:20.807Z,85.75
2022-10-06T02:46:22.641Z,85.28
2022-10-06T02:48:24.377Z,85.32
2022-10-06T02:50:26.126Z,85.27
2022-10-06T02:52:27.884Z,85.11
2022-10-06T02:54:29.266Z,84.73
2022-10-06T02:56:30.269Z,84.52
2022-10-06T02:58:31.813Z,84.57
2022-10-06T03:00:32.708Z,84.51
2022-10-06T03:02:33.757Z,84.93
2022-10-06T03:04:35.367Z,84.95
2022-10-06T03:06:36.378Z,85.01
2022-10-06T03:08:37.526Z,85.3
2022-10-06T03:10:38.759Z,85.5
2022-10-06T03:12:40.477Z,85.02
2022-10-06T03:14:42.158Z,85
2022-10-06T03:16:43.110Z,85.18
2022-10-06T03:18:44.849Z,85.46
2022-10-06T03:20:46.237Z,85.74
2022-10-06T03:22:47.881Z,86.08
2022-10-06T03:26:50.341Z,86.72
2022-10-06T03:28:51.956Z,86.86
2022-10-06T03:30:53.790Z,87.2
2022-10-06T03:32:54.973Z,87.41
2022-10-06T03:34:56.647Z,87.81
2022-10-06T03:36:58.121Z,87.94
2022-10-06T03:38:59.359Z,87.6
2022-10-06T03:41:00.239Z,87.28
2022-10-06T03:43:01.417Z,87.14
2022-10-06T03:45:02.730Z,88
2022-10-06T03:47:04.117Z,88.05
2022-10-06T03:49:05.581Z,87.99
2022-10-06T03:51:06.669Z,87.69
2022-10-06T03:53:08.325Z,87.81
2022-10-06T03:55:09.486Z,87.84
2022-10-06T03:57:11.341Z,87.35
2022-10-06T03:59:12.414Z,87.19
2022-10-06T04:01:14.301Z,86.42
2022-10-06T04:03:15.177Z,86.57
2022-10-06T04:05:16.806Z,86.26
2022-10-06T04:09:19.957Z,86.7
2022-10-06T04:11:20.907Z,86.66
2022-10-06T04:13:22.094Z,86.98
2022-10-06T04:15:23.288Z,87.26
2022-10-06T04:17:24.646Z,86.68
2022-10-06T04:19:26.242Z,86.68
2022-10-06T04:21:27.934Z,86.88
2022-10-06T04:23:29.516Z,87.53
2022-10-06T04:25:30.928Z,87.75
2022-10-06T04:27:32.707Z,87.7
2022-10-06T04:29:34.571Z,87.65
2022-10-06T04:31:35.491Z,87.62
2022-10-06T04:33:36.538Z,87.69
2022-10-06T04:37:39.175Z,87.73
2022-10-06T04:41:42.289Z,87.98
2022-10-06T04:43:43.999Z,88.03
2022-10-06T04:45:45.671Z,87.97
2022-10-06T04:47:46.556Z,88.08
2022-10-06T04:51:49.893Z,87.3
2022-10-06T04:53:51.164Z,87.32
2022-10-06T04:55:52.275Z,87.75
2022-10-06T04:57:53.302Z,87.73
2022-10-06T04:59:54.464Z,87.47
2022-10-06T05:01:55.879Z,87.72
2022-10-06T05:03:57.215Z,87.78
2022-10-06T05:05:59.036Z,88.04
2022-10-06T05:08:00.042Z,88.13
2022-10-06T05:10:01.768Z,88.19
2022-10-06T05:12:02.671Z,88.31
2022-10-06T05:14:04.330Z,88.18
2022-10-06T05:16:05.444Z,88.25
2022-10-06T05:18:06.910Z,88.32
2022-10-06T05:20:08.743Z,88.18
2022-10-06T05:22:10.358Z,88.03
2022-10-06T05:22:54.212Z,88.12
2022-10-06T05:24:55.612Z,88.39
2022-10-06T05:26:59.566Z,88.44
2022-10-06T05:28:58.693Z,88.56
2022-10-06T05:30:59.650Z,88.59
2022-10-06T05:33:01.216Z,88.61
2022-10-06T05:35:02.960Z,88.46
2022-10-06T05:37:04.682Z,88.77
2022-10-06T05:39:06.376Z,89.17
2022-10-06T05:41:07.663Z,89.39
2022-10-06T05:45:10.051Z,89.62
2022-10-06T05:47:11.075Z,89.76
2022-10-06T05:49:12.246Z,89.97
2022-10-06T05:51:14.077Z,90.2
2022-10-06T05:53:15.653Z,90.32
2022-10-06T05:55:16.666Z,90.61
2022-10-06T05:57:18.086Z,90.96
2022-10-06T05:59:19.097Z,91.23
2022-10-06T06:01:20.855Z,91.56
2022-10-06T06:03:21.997Z,91.81
2022-10-06T06:05:23.382Z,92.35
2022-10-06T06:07:24.446Z,92.68
2022-10-06T06:09:26.308Z,92.76
2022-10-06T06:11:27.843Z,92.92
2022-10-06T06:13:29.629Z,93.05
2022-10-06T06:15:30.836Z,93
2022-10-06T06:17:31.760Z,93.14
2022-10-06T06:19:32.649Z,93.11
2022-10-06T06:21:34.526Z,93.11
2022-10-06T06:23:35.970Z,93.25
2022-10-06T06:27:38.729Z,93.46
2022-10-06T06:29:40.141Z,93.44
2022-10-06T06:31:41.979Z,93.63
2022-10-06T06:33:43.776Z,93.74
2022-10-06T06:35:45.562Z,93.79
2022-10-06T06:37:46.667Z,93.9
2022-10-06T06:39:48.024Z,93.92
2022-10-06T06:41:49.465Z,93.9
2022-10-06T06:43:50.639Z,94.02
2022-10-06T06:45:52.223Z,93.88
2022-10-06T06:47:53.621Z,93.81
2022-10-06T06:49:54.490Z,93.64
2022-10-06T06:51:55.916Z,93.66
2022-10-06T06:53:57.643Z,93.86
2022-10-06T06:55:59.204Z,93.94
2022-10-06T06:58:00.567Z,93.92
2022-10-06T07:00:01.536Z,93.85
2022-10-06T07:02:03.529Z,93.85
2022-10-06T07:04:04.422Z,93.87
2022-10-06T07:06:05.466Z,93.66
2022-10-06T07:10:08.614Z,93.12
2022-10-06T07:12:10.194Z,92.88
2022-10-06T07:14:11.375Z,92.89
2022-10-06T07:16:13.081Z,92.78
2022-10-06T07:18:13.986Z,92.06
2022-10-06T07:20:15.442Z,91.89
2022-10-06T07:22:16.537Z,91.72
2022-10-06T07:24:18.291Z,91.79
2022-10-06T07:26:20.109Z,91.75
2022-10-06T07:28:21.480Z,91.25
2022-10-06T07:30:23.286Z,90.59
2022-10-06T07:32:24.192Z,90.32
2022-10-06T07:34:26.016Z,89.74
2022-10-06T07:36:26.912Z,89.87
2022-10-06T07:38:28.582Z,90.3
2022-10-06T07:40:29.474Z,90.86
2022-10-06T07:42:30.537Z,91.02
2022-10-06T07:44:31.482Z,90.26
2022-10-06T07:46:33.217Z,89.49
2022-10-06T07:48:34.673Z,87.06
2022-10-06T07:50:35.662Z,87.12
2022-10-06T07:52:36.824Z,88.06
2022-10-06T07:54:38.551Z,88.08
2022-10-06T07:56:39.720Z,87.37
2022-10-06T07:58:41.377Z,87.62
2022-10-06T08:00:42.645Z,87.04
2022-10-06T08:02:43.845Z,86.05
2022-10-06T08:04:44.849Z,86.56
2022-10-06T08:08:51.826Z,83.94
2022-10-06T08:10:48.578Z,81.45
2022-10-06T08:12:49.685Z,79.62
2022-10-06T08:14:51.011Z,78.04
2022-10-06T08:16:51.968Z,78.71
2022-10-06T08:18:53.060Z,76.25
2022-10-06T08:20:54.645Z,76.5
2022-10-06T08:22:56.363Z,76.54
2022-10-06T08:25:05.602Z,74.44
2022-10-06T08:26:59.464Z,76.33
2022-10-06T08:29:01.268Z,76.91
2022-10-06T08:31:03.070Z,77.38
2022-10-06T08:33:04.214Z,78.46
2022-10-06T08:35:05.739Z,75.1
2022-10-06T08:37:19.665Z,72.55
2022-10-06T08:41:09.842Z,73.06
2022-10-06T08:43:11.011Z,73.85
2022-10-06T08:45:12.833Z,73.89
2022-10-06T08:47:14.534Z,75.54
2022-10-06T08:51:17.605Z,74.03
2022-10-06T08:53:19.058Z,69.96
2022-10-06T08:55:19.880Z,70.38
2022-10-06T08:57:21.180Z,68.94
2022-10-06T08:59:22.281Z,65.48
2022-10-06T09:01:23.123Z,64.17
2022-10-06T09:03:24.324Z,63.81
2022-10-06T09:05:25.350Z,64.31
2022-10-06T09:07:26.774Z,66.79
2022-10-06T09:09:27.641Z,62.12
2022-10-06T09:11:29.362Z,60.94
2022-10-06T09:13:31.118Z,60.97
2022-10-06T09:15:32.030Z,64.01
2022-10-06T09:17:32.874Z,87.76
2022-10-06T09:17:32.883Z,62.79
2022-10-06T09:55:59.554Z,66.28
2022-10-06T09:58:00.920Z,66.63
2022-10-06T10:00:02.381Z,66.74
2022-10-06T10:02:03.316Z,64.51
2022-10-06T10:04:21.223Z,64.4
2022-10-06T10:06:05.678Z,64.78
2022-10-06T10:08:07.428Z,62.56
2022-10-06T10:10:08.270Z,62.54
2022-10-06T10:12:09.161Z,63.83
2022-10-06T10:14:10.111Z,62.37
2022-10-06T10:16:11.654Z,62.28
2022-10-06T10:18:13.055Z,61.73
2022-10-06T10:22:15.317Z,61.86
2022-10-06T10:24:16.438Z,62.86
2022-10-06T10:26:17.803Z,61.78
2022-10-06T10:28:19.513Z,61.41
2022-10-06T10:32:22.187Z,60.96
2022-10-06T10:34:24.562Z,63.61
2022-10-06T10:36:24.984Z,58.51
2022-10-06T10:38:26.212Z,60.95
2022-10-06T10:40:27.791Z,57.33
2022-10-06T10:42:29.408Z,58.63
2022-10-06T10:44:30.243Z,60.69
2022-10-06T10:46:31.959Z,61
2022-10-06T10:48:33.127Z,56.88
2022-10-06T10:50:34.122Z,60.27
2022-10-06T10:52:35.490Z,57.92
2022-10-06T10:54:36.875Z,59.2
2022-10-06T10:56:38.602Z,59.78
2022-10-06T10:58:39.649Z,58.77
2022-10-06T11:00:41.224Z,62.15
2022-10-06T11:02:42.697Z,60.33
2022-10-06T11:04:43.715Z,60.99
2022-10-06T11:06:44.625Z,61.62
2022-10-06T11:10:47.815Z,61.83
2022-10-06T11:14:50.753Z,61.96
2022-10-06T11:16:52.293Z,60.34
2022-10-06T11:20:54.943Z,60.47
2022-10-06T11:22:56.332Z,60.52
2022-10-06T11:24:57.704Z,60.05
2022-10-06T11:26:58.328Z,57.05
2022-10-06T11:28:59.305Z,60.81
2022-10-06T11:31:00.788Z,58.94
2022-10-06T11:33:01.815Z,59.68
2022-10-06T11:35:02.924Z,58.02
2022-10-06T11:37:03.894Z,57.3
2022-10-06T11:39:05.201Z,58.46
2022-10-06T11:41:09.595Z,55.39
2022-10-06T11:43:08.244Z,55.9
2022-10-06T11:45:09.641Z,55.83
2022-10-06T11:47:10.990Z,56.27
2022-10-06T11:49:12.680Z,57.37
2022-10-06T11:51:13.752Z,55.37
2022-10-06T11:53:14.710Z,59.27
2022-10-06T11:55:16.325Z,56.28
2022-10-06T11:57:18.332Z,54.71
2022-10-06T11:59:19.150Z,54.61
2022-10-06T12:01:20.720Z,54.44
2022-10-06T12:03:21.828Z,54.55
2022-10-06T12:05:54.615Z,58.54
2022-10-06T12:07:23.779Z,54.53
2022-10-06T12:08:07.484Z,54.3
2022-10-06T12:10:08.477Z,52.1
2022-10-06T12:12:10.039Z,51.31
2022-10-06T12:15:31.727Z,51.51
2022-10-06T12:18:14.153Z,55.36
2022-10-06T12:20:15.301Z,50.76
2022-10-06T12:22:16.435Z,50.96
2022-10-06T12:24:18.053Z,56.08
2022-10-06T12:26:19.410Z,51.12
2022-10-06T12:28:21.235Z,53.32
2022-10-06T12:30:22.602Z,50.4
2022-10-06T12:32:24.321Z,51.17
2022-10-06T12:34:26.000Z,49
2022-10-06T12:36:27.101Z,50.06
2022-10-06T12:40:30.567Z,49.08
2022-10-06T12:42:31.401Z,48.56
2022-10-06T12:44:32.658Z,48.22
2022-10-06T12:46:34.374Z,49.43
2022-10-06T12:50:36.930Z,50.3
2022-10-06T12:52:38.714Z,50.14
2022-10-06T12:54:39.703Z,50.58
2022-10-06T12:56:41.060Z,52.39
2022-10-06T12:58:42.389Z,51.4
2022-10-06T13:00:44.117Z,51.92
2022-10-06T13:02:45.814Z,47.77
2022-10-06T13:04:47.087Z,47.28
2022-10-06T13:06:48.903Z,46.35
2022-10-06T13:08:50.200Z,47.17
2022-10-06T13:10:51.458Z,48.88
2022-10-06T13:12:52.893Z,47.14
2022-10-06T13:14:54.579Z,45.94
2022-10-06T13:16:57.544Z,46.7
2022-10-06T13:18:57.866Z,47.76
2022-10-06T13:20:59.234Z,48.1
2022-10-06T13:23:00.078Z,49.65
2022-10-06T13:25:01.624Z,46.29
2022-10-06T13:27:02.691Z,45.31
2022-10-06T13:29:03.545Z,46.6
2022-10-06T13:31:04.683Z,45.92
2022-10-06T13:33:06.318Z,47.7
2022-10-06T13:35:07.633Z,48.63
2022-10-06T13:39:10.474Z,43.6
2022-10-06T13:41:11.612Z,43.85
2022-10-06T13:43:13.905Z,43.41
2022-10-06T13:45:14.827Z,44.69
2022-10-06T13:49:17.158Z,45.69
2022-10-06T13:51:18.469Z,45.27
2022-10-06T13:53:19.624Z,44.14
2022-10-06T13:55:20.835Z,43.12
2022-10-06T13:57:22.556Z,44.66
2022-10-06T13:59:23.556Z,43.81
2022-10-06T14:01:25.853Z,43.86
2022-10-06T14:03:26.852Z,42.81
2022-10-06T14:05:28.521Z,44.62
2022-10-06T14:07:29.838Z,44.63
2022-10-06T14:09:30.733Z,46.37
2022-10-06T14:11:31.613Z,45.29
2022-10-06T14:13:32.695Z,44.13
2022-10-06T14:15:33.688Z,44.69
2022-10-06T14:17:34.775Z,45.82
2022-10-06T14:19:36.536Z,44.32
2022-10-06T14:21:38.083Z,43.46
2022-10-06T14:23:39.781Z,42.21
2022-10-06T14:25:41.377Z,43.05
2022-10-06T14:27:42.744Z,42.08
2022-10-06T14:31:44.648Z,42.41
2022-10-06T14:33:46.208Z,44.47
2022-10-06T14:35:47.360Z,42.09
2022-10-06T14:37:48.548Z,44.7
2022-10-06T14:39:50.012Z,43.93
2022-10-06T14:41:51.011Z,43.41
2022-10-06T14:43:52.422Z,44.39
2022-10-06T14:45:53.575Z,43.4
2022-10-06T14:47:54.890Z,43.53
2022-10-06T14:49:56.111Z,46.09
2022-10-06T14:51:56.916Z,43.68
2022-10-06T14:53:58.537Z,43.35
2022-10-06T14:56:00.001Z,45.16
2022-10-06T14:58:01.531Z,42.67
2022-10-06T15:00:02.837Z,45.02
2022-10-06T15:02:03.707Z,42.96
2022-10-06T15:04:05.150Z,41.95
2022-10-06T15:06:06.755Z,42.63
2022-10-06T15:08:08.519Z,42.71
2022-10-06T15:10:09.419Z,44.06
2022-10-06T15:12:10.988Z,43.92
2022-10-06T15:14:12.075Z,45.49
2022-10-06T15:16:14.374Z,44.09
2022-10-06T15:18:15.778Z,44.25
2022-10-06T15:20:16.828Z,44.71
2022-10-06T15:22:18.490Z,43.32
2022-10-06T15:24:19.471Z,43.91
2022-10-06T15:26:21.061Z,44.31
2022-10-06T15:30:24.146Z,43.21
2022-10-06T15:32:25.127Z,43.72
2022-10-06T15:34:26.126Z,45.97
2022-10-06T15:36:27.833Z,45.66
2022-10-06T15:38:29.216Z,45.92
2022-10-06T15:42:31.687Z,45.87
2022-10-06T15:44:32.766Z,48.67
2022-10-06T15:46:34.590Z,50.16
2022-10-06T15:48:36.199Z,49.33
2022-10-06T15:50:37.746Z,49.6
2022-10-06T15:52:38.715Z,51.01
2022-10-06T15:54:40.054Z,49.16
2022-10-06T15:56:40.972Z,50.99
2022-10-06T15:58:42.228Z,49.75
2022-10-06T16:00:43.652Z,50.24
2022-10-06T16:02:44.722Z,50.47
2022-10-06T16:04:46.123Z,51.43
2022-10-06T16:06:47.220Z,51.06
2022-10-06T16:08:48.146Z,53.76
2022-10-06T16:12:51.111Z,55.97
2022-10-06T16:14:52.039Z,57.23
2022-10-06T16:16:53.316Z,56
2022-10-06T16:18:54.591Z,59.36
2022-10-06T16:20:55.637Z,58.77
2022-10-06T16:22:57.000Z,59.59
2022-10-06T16:24:58.454Z,58.39
2022-10-06T16:27:00.310Z,58.53
2022-10-06T16:29:01.646Z,59.17
2022-10-06T16:31:03.437Z,59.27
2022-10-06T16:33:05.205Z,59.82
2022-10-06T16:35:06.137Z,60.23
2022-10-06T16:37:07.410Z,61.35
2022-10-06T16:39:08.432Z,61.44
2022-10-06T16:41:09.390Z,63.12
2022-10-06T16:45:11.939Z,65.98
2022-10-06T16:47:13.115Z,67.7
2022-10-06T16:49:14.820Z,69.62
2022-10-06T16:51:16.505Z,70.67
2022-10-06T16:53:17.689Z,70.7
2022-10-06T16:55:18.746Z,71.83
2022-10-06T16:57:19.656Z,72.26
2022-10-06T17:01:22.450Z,73.55
2022-10-06T17:03:23.873Z,73.17
2022-10-06T17:05:25.574Z,73.23
2022-10-06T17:07:27.129Z,73.52
2022-10-06T17:11:29.459Z,73.56
2022-10-06T17:13:30.637Z,73.68
2022-10-06T17:15:33.610Z,73.74
2022-10-06T17:17:33.223Z,75.15
2022-10-06T17:19:34.274Z,76.14
2022-10-06T17:21:45.354Z,76.52
2022-10-06T17:23:37.333Z,76.77
2022-10-06T17:25:39.262Z,77.08
2022-10-06T17:27:42.102Z,77.89
2022-10-06T17:29:42.830Z,78.8
2022-10-06T17:31:43.975Z,78.97
2022-10-06T17:33:45.070Z,79.11
2022-10-06T17:35:46.921Z,78.39
2022-10-06T17:37:48.297Z,78.62
2022-10-06T17:39:50.231Z,78.45
2022-10-06T17:41:51.926Z,79.52
2022-10-06T17:43:53.566Z,79.89
2022-10-06T17:45:55.447Z,80.18
2022-10-06T17:47:56.797Z,80.64
2022-10-06T17:49:58.686Z,80.74
2022-10-06T17:54:00.791Z,82.01
2022-10-06T17:56:02.127Z,83.22
2022-10-06T17:58:03.379Z,84.24
2022-10-06T18:00:04.678Z,83.86
2022-10-06T18:02:06.460Z,83.34
2022-10-06T18:04:07.520Z,83.41
2022-10-06T18:06:09.163Z,84.82
2022-10-06T18:08:10.162Z,84.47
2022-10-06T18:10:11.913Z,83.9
2022-10-06T18:12:13.321Z,84.15
2022-10-06T18:14:14.539Z,84.32
2022-10-06T18:16:16.086Z,84.42
2022-10-06T18:18:17.398Z,84.62
2022-10-06T18:20:18.519Z,84.9
2022-10-06T18:22:20.235Z,86.16
2022-10-06T18:24:22.168Z,86.79
2022-10-06T18:26:23.686Z,86.84
2022-10-06T18:28:24.848Z,87.72
2022-10-06T18:30:29.017Z,87.49
2022-10-06T18:33:45.021Z,87.43
2022-10-06T18:36:30.661Z,88.29
2022-10-06T18:38:32.354Z,88.34
2022-10-06T18:40:33.472Z,87.88
2022-10-06T18:42:35.295Z,87.66
2022-10-06T18:44:37.000Z,87.54
2022-10-06T18:46:38.436Z,88.41
2022-10-06T18:48:39.458Z,89.27
2022-10-06T18:50:41.231Z,89.27
2022-10-06T18:52:42.192Z,89.61
2022-10-06T18:53:26.048Z,89.65
2022-10-06T18:55:27.093Z,90.25
2022-10-06T18:57:28.173Z,90.54
2022-10-06T18:59:29.335Z,91.14
2022-10-06T19:01:30.754Z,91.25
2022-10-06T19:03:32.431Z,90.98
2022-10-06T19:05:33.769Z,91.06
2022-10-06T19:07:34.975Z,91.05
2022-10-06T19:09:36.306Z,91.07
2022-10-06T19:13:39.311Z,91.34
2022-10-06T19:15:40.267Z,91.18
2022-10-06T19:17:41.700Z,91.12
2022-10-06T19:19:42.533Z,91.81
2022-10-06T19:21:43.835Z,91.95
2022-10-06T19:23:44.834Z,92.62
2022-10-06T19:25:46.423Z,92.9
2022-10-06T19:29:48.692Z,93.27
2022-10-06T19:31:50.278Z,93.17
2022-10-06T19:33:51.586Z,93.26
2022-10-06T19:35:53.467Z,93.25
2022-10-06T19:37:54.941Z,93
2022-10-06T19:39:56.520Z,92.78
2022-10-06T19:41:57.865Z,92.44
2022-10-06T19:43:59.444Z,92.5
2022-10-06T19:46:01.354Z,93.01
2022-10-06T19:48:03.170Z,93.4
2022-10-06T19:50:08.848Z,93.73
2022-10-06T19:52:05.667Z,93.72
2022-10-06T19:54:07.162Z,93.94
2022-10-06T19:56:08.806Z,94.24
2022-10-06T19:58:10.289Z,94.67
2022-10-06T20:02:12.818Z,95.04
2022-10-06T20:04:14.028Z,95.19
2022-10-06T20:06:15.719Z,95.05
2022-10-06T20:08:17.532Z,94.86
2022-10-06T20:10:18.617Z,95
2022-10-06T20:12:24.489Z,94.87
2022-10-06T20:14:21.749Z,94.96
2022-10-06T20:16:22.855Z,95.24
2022-10-06T20:18:24.282Z,95.28
2022-10-06T20:20:25.422Z,95.21
2022-10-06T20:22:26.473Z,95.17
2022-10-06T20:24:28.313Z,95.07
2022-10-06T20:26:29.553Z,95.39
2022-10-06T20:28:31.499Z,95.42
2022-10-06T20:30:32.666Z,95.42
2022-10-06T20:34:35.117Z,95.75
2022-10-06T20:36:36.107Z,96
2022-10-06T20:40:38.533Z,95.94
2022-10-06T20:42:40.026Z,96.34
2022-10-06T20:44:41.400Z,96.37
2022-10-06T20:46:42.552Z,96.23
2022-10-06T20:50:45.176Z,96.26
2022-10-06T20:52:47.077Z,96.26
2022-10-06T20:54:48.792Z,96.31
2022-10-06T20:56:50.561Z,96.37
2022-10-06T21:00:53.177Z,96.37
2022-10-06T21:02:55.038Z,96.35
2022-10-06T21:04:56.396Z,96.31
2022-10-06T21:06:57.654Z,96.32
2022-10-06T21:08:59.364Z,96.45
2022-10-06T21:11:00.832Z,96.54
2022-10-06T21:13:02.563Z,96.62
2022-10-06T21:15:03.739Z,96.61
2022-10-06T21:17:05.369Z,96.53
2022-10-06T21:19:06.799Z,96.47
2022-10-06T21:21:08.215Z,96.54
2022-10-06T21:23:09.972Z,96.55
2022-10-06T21:25:11.380Z,96.6
2022-10-06T21:27:12.498Z,96.54
2022-10-06T21:29:14.252Z,96.62
2022-10-06T21:31:15.426Z,96.6
2022-10-06T21:33:16.613Z,96.6
2022-10-06T21:35:18.503Z,96.93
2022-10-06T21:37:20.165Z,97.04
2022-10-06T21:39:21.746Z,97.05
2022-10-06T21:43:25.021Z,97.04
2022-10-06T21:45:29.614Z,97.32
2022-10-06T21:47:28.049Z,97.31
2022-10-06T21:49:29.018Z,97.21
2022-10-06T21:51:30.571Z,97.17
2022-10-06T21:53:32.158Z,97.19
2022-10-06T21:55:33.596Z,97.19
2022-10-06T21:57:35.183Z,97.23
2022-10-06T21:59:37.085Z,97.47
2022-10-06T22:01:38.138Z,97.63
2022-10-06T22:03:40.127Z,97.7
2022-10-06T22:05:41.159Z,97.75
2022-10-06T22:07:43.272Z,97.84
2022-10-06T22:09:44.855Z,97.8
2022-10-06T22:11:46.177Z,97.75
2022-10-06T22:13:47.997Z,97.75
2022-10-06T22:15:49.741Z,97.86
2022-10-06T22:17:51.558Z,97.89
2022-10-06T22:19:53.131Z,97.87
2022-10-06T22:21:54.411Z,97.85
2022-10-06T22:23:55.920Z,97.8
2022-10-06T22:25:56.997Z,97.72
2022-10-06T22:27:58.603Z,97.86
2022-10-06T22:30:00.277Z,97.91
2022-10-06T22:32:01.965Z,97.86
2022-10-06T22:34:03.424Z,97.86
2022-10-06T22:36:04.680Z,97.79
2022-10-06T22:38:06.532Z,97.81
2022-10-06T22:40:07.993Z,97.85
2022-10-06T22:42:09.212Z,97.94
2022-10-06T22:44:10.654Z,98.12
2022-10-06T22:46:11.893Z,98.06
2022-10-06T22:48:13.775Z,98.06
2022-10-06T22:50:15.219Z,98.1
2022-10-06T22:52:16.796Z,98.06
2022-10-06T22:54:18.430Z,98.05
2022-10-06T22:56:20.170Z,98.08
2022-10-06T22:58:21.493Z,98
2022-10-06T23:00:22.696Z,97.97
2022-10-06T23:02:23.952Z,98.06
2022-10-06T23:04:25.376Z,98.17
2022-10-06T23:08:34.087Z,98.12
2022-10-06T23:10:30.645Z,98.1
2022-10-06T23:12:32.553Z,98.06
2022-10-06T23:14:34.496Z,98.08
2022-10-06T23:16:36.347Z,98.15
2022-10-06T23:18:38.201Z,98.21
2022-10-06T23:20:39.687Z,98.23
2022-10-06T23:22:41.522Z,98.23
2022-10-06T23:24:43.429Z,98.22
2022-10-06T23:26:44.962Z,98.27
2022-10-06T23:28:46.278Z,98.25
2022-10-06T23:30:47.664Z,98.29
2022-10-06T23:32:49.598Z,98.28
2022-10-06T23:34:51.457Z,98.31
2022-10-06T23:36:53.008Z,98.32
2022-10-06T23:40:55.898Z,98.29
2022-10-06T23:42:57.788Z,98.24
2022-10-06T23:44:59.408Z,98.2
2022-10-06T23:47:00.686Z,98.23
2022-10-06T23:51:03.183Z,98.37
2022-10-06T23:53:05.096Z,98.4
2022-10-06T23:55:06.946Z,98.46
2022-10-06T23:57:08.386Z,98.49
2022-10-06T23:59:10.208Z,98.51
